sensor_id;sensor_type;location;lat;lon;timestamp;P1;durP1;ratioP1;P2;durP2;ratioP2
49502;SDS011;35409;48.776;9.204;2023-02-11T00:01:23;48.95;;;21.70;;
49502;SDS011;35409;48.776;9.204;2023-02-11T00:03:51;53.15;;;22.73;;
49502;SDS011;35409;48.776;9.204;2023-02-11T00:06:18;55.08;;;23.65;;
49502;SDS011;35409;48.776;9.204;2023-02-11T00:08:43;48.55;;;22.15;;
49502;SDS011;35409;48.776;9.204;2023-02-11T00:11:13;51.65;;;23.38;;
49502;SDS011;35409;48.776;9.204;2023-02-11T00:13:40;57.33;;;25.85;;
49502;SDS011;35409;48.776;9.204;2023-02-11T00:16:10;57.28;;;26.25;;
49502;SDS011;35409;48.776;9.204;2023-02-11T00:18:38;52.25;;;23.73;;
49502;SDS011;35409;48.776;9.204;2023-02-11T00:21:08;52.72;;;23.73;;
49502;SDS011;35409;48.776;9.204;2023-02-11T00:23:35;51.05;;;24.30;;
49502;SDS011;35409;48.776;9.204;2023-02-11T00:26:01;58.60;;;27.27;;
49502;SDS011;35409;48.776;9.204;2023-02-11T00:28:27;57.33;;;25.27;;
49502;SDS011;35409;48.776;9.204;2023-02-11T00:30:53;60.05;;;27.45;;
49502;SDS011;35409;48.776;9.204;2023-02-11T00:33:19;55.97;;;25.27;;
49502;SDS011;35409;48.776;9.204;2023-02-11T00:35:45;59.28;;;25.98;;
49502;SDS011;35409;48.776;9.204;2023-02-11T00:38:10;58.05;;;26.35;;
49502;SDS011;35409;48.776;9.204;2023-02-11T00:40:36;62.45;;;25.58;;
49502;SDS011;35409;48.776;9.204;2023-02-11T00:43:01;58.92;;;25.58;;
49502;SDS011;35409;48.776;9.204;2023-02-11T00:45:27;53.25;;;25.85;;
49502;SDS011;35409;48.776;9.204;2023-02-11T00:47:54;56.85;;;24.65;;
49502;SDS011;35409;48.776;9.204;2023-02-11T00:50:20;57.25;;;26.25;;
49502;SDS011;35409;48.776;9.204;2023-02-11T00:52:46;51.47;;;24.58;;
49502;SDS011;35409;48.776;9.204;2023-02-11T00:55:11;54.85;;;25.42;;
49502;SDS011;35409;48.776;9.204;2023-02-11T00:57:37;58.70;;;28.13;;
49502;SDS011;35409;48.776;9.204;2023-02-11T01:00:03;55.67;;;25.98;;
49502;SDS011;35409;48.776;9.204;2023-02-11T01:02:31;65.60;;;28.88;;
49502;SDS011;35409;48.776;9.204;2023-02-11T01:04:57;69.13;;;28.13;;
49502;SDS011;35409;48.776;9.204;2023-02-11T01:07:24;64.97;;;26.98;;
49502;SDS011;35409;48.776;9.204;2023-02-11T01:09:50;65.90;;;27.90;;
49502;SDS011;35409;48.776;9.204;2023-02-11T01:12:16;58.28;;;26.63;;
49502;SDS011;35409;48.776;9.204;2023-02-11T01:14:41;59.40;;;27.00;;
49502;SDS011;35409;48.776;9.204;2023-02-11T01:17:07;62.22;;;28.58;;
49502;SDS011;35409;48.776;9.204;2023-02-11T01:19:32;62.95;;;29.25;;
49502;SDS011;35409;48.776;9.204;2023-02-11T01:21:58;60.38;;;28.13;;
49502;SDS011;35409;48.776;9.204;2023-02-11T01:24:24;64.00;;;28.92;;
49502;SDS011;35409;48.776;9.204;2023-02-11T01:26:49;56.60;;;27.45;;
49502;SDS011;35409;48.776;9.204;2023-02-11T01:29:15;68.57;;;29.52;;
49502;SDS011;35409;48.776;9.204;2023-02-11T01:31:40;62.47;;;28.20;;
49502;SDS011;35409;48.776;9.204;2023-02-11T01:34:06;52.25;;;25.65;;
49502;SDS011;35409;48.776;9.204;2023-02-11T01:36:32;55.58;;;24.85;;
49502;SDS011;35409;48.776;9.204;2023-02-11T01:38:57;52.35;;;24.17;;
49502;SDS011;35409;48.776;9.204;2023-02-11T01:41:23;57.75;;;27.27;;
49502;SDS011;35409;48.776;9.204;2023-02-11T01:43:48;60.17;;;27.42;;
49502;SDS011;35409;48.776;9.204;2023-02-11T01:46:27;60.38;;;27.17;;
49502;SDS011;35409;48.776;9.204;2023-02-11T01:51:45;57.50;;;25.48;;
49502;SDS011;35409;48.776;9.204;2023-02-11T01:54:18;57.53;;;26.48;;
49502;SDS011;35409;48.776;9.204;2023-02-11T01:57:06;65.75;;;27.80;;
49502;SDS011;35409;48.776;9.204;2023-02-11T01:59:52;61.15;;;26.65;;
49502;SDS011;35409;48.776;9.204;2023-02-11T02:02:42;55.55;;;24.08;;
49502;SDS011;35409;48.776;9.204;2023-02-11T02:10:34;57.17;;;24.88;;
49502;SDS011;35409;48.776;9.204;2023-02-11T02:13:04;66.28;;;27.70;;
49502;SDS011;35409;48.776;9.204;2023-02-11T02:15:33;57.53;;;25.95;;
49502;SDS011;35409;48.776;9.204;2023-02-11T02:20:51;55.33;;;27.23;;
49502;SDS011;35409;48.776;9.204;2023-02-11T02:26:15;56.47;;;26.45;;
49502;SDS011;35409;48.776;9.204;2023-02-11T02:29:05;57.60;;;25.85;;
49502;SDS011;35409;48.776;9.204;2023-02-11T02:35:08;60.15;;;26.13;;
49502;SDS011;35409;48.776;9.204;2023-02-11T02:40:22;57.35;;;27.02;;
49502;SDS011;35409;48.776;9.204;2023-02-11T02:42:52;59.08;;;27.58;;
49502;SDS011;35409;48.776;9.204;2023-02-11T02:45:19;59.15;;;26.48;;
49502;SDS011;35409;48.776;9.204;2023-02-11T02:47:44;58.15;;;27.75;;
49502;SDS011;35409;48.776;9.204;2023-02-11T02:50:10;61.08;;;26.98;;
49502;SDS011;35409;48.776;9.204;2023-02-11T02:52:43;56.10;;;26.55;;
49502;SDS011;35409;48.776;9.204;2023-02-11T03:06:31;60.35;;;28.33;;
49502;SDS011;35409;48.776;9.204;2023-02-11T03:09:08;56.25;;;24.70;;
49502;SDS011;35409;48.776;9.204;2023-02-11T03:11:38;66.22;;;26.50;;
49502;SDS011;35409;48.776;9.204;2023-02-11T03:14:05;62.38;;;27.77;;
49502;SDS011;35409;48.776;9.204;2023-02-11T03:16:34;56.97;;;25.80;;
49502;SDS011;35409;48.776;9.204;2023-02-11T03:19:11;58.92;;;27.60;;
49502;SDS011;35409;48.776;9.204;2023-02-11T03:21:42;59.00;;;28.50;;
49502;SDS011;35409;48.776;9.204;2023-02-11T03:24:13;57.60;;;26.75;;
49502;SDS011;35409;48.776;9.204;2023-02-11T03:26:50;54.67;;;25.20;;
49502;SDS011;35409;48.776;9.204;2023-02-11T03:31:52;57.65;;;27.50;;
49502;SDS011;35409;48.776;9.204;2023-02-11T03:37:21;56.17;;;24.75;;
49502;SDS011;35409;48.776;9.204;2023-02-11T03:39:58;63.63;;;27.15;;
49502;SDS011;35409;48.776;9.204;2023-02-11T03:42:29;58.15;;;27.35;;
49502;SDS011;35409;48.776;9.204;2023-02-11T03:45:00;52.70;;;25.70;;
49502;SDS011;35409;48.776;9.204;2023-02-11T03:47:40;58.00;;;26.20;;
49502;SDS011;35409;48.776;9.204;2023-02-11T03:50:11;53.83;;;24.77;;
49502;SDS011;35409;48.776;9.204;2023-02-11T03:52:39;51.90;;;25.13;;
49502;SDS011;35409;48.776;9.204;2023-02-11T03:55:07;55.75;;;25.30;;
49502;SDS011;35409;48.776;9.204;2023-02-11T03:57:37;64.95;;;28.27;;
49502;SDS011;35409;48.776;9.204;2023-02-11T04:00:03;62.75;;;26.92;;
49502;SDS011;35409;48.776;9.204;2023-02-11T04:02:30;55.85;;;26.73;;
49502;SDS011;35409;48.776;9.204;2023-02-11T04:04:59;57.45;;;26.10;;
49502;SDS011;35409;48.776;9.204;2023-02-11T04:07:25;62.45;;;27.30;;
49502;SDS011;35409;48.776;9.204;2023-02-11T04:09:51;54.83;;;25.80;;
49502;SDS011;35409;48.776;9.204;2023-02-11T04:12:17;55.65;;;27.15;;
49502;SDS011;35409;48.776;9.204;2023-02-11T04:14:42;56.45;;;24.92;;
49502;SDS011;35409;48.776;9.204;2023-02-11T04:17:08;49.42;;;23.75;;
49502;SDS011;35409;48.776;9.204;2023-02-11T04:19:33;50.30;;;24.08;;
49502;SDS011;35409;48.776;9.204;2023-02-11T04:21:59;52.50;;;25.15;;
49502;SDS011;35409;48.776;9.204;2023-02-11T04:24:25;58.50;;;26.15;;
49502;SDS011;35409;48.776;9.204;2023-02-11T04:26:50;55.25;;;26.13;;
49502;SDS011;35409;48.776;9.204;2023-02-11T04:29:16;53.83;;;24.10;;
49502;SDS011;35409;48.776;9.204;2023-02-11T04:31:42;55.08;;;25.83;;
49502;SDS011;35409;48.776;9.204;2023-02-11T04:34:08;53.13;;;25.23;;
49502;SDS011;35409;48.776;9.204;2023-02-11T04:36:34;50.53;;;24.80;;
49502;SDS011;35409;48.776;9.204;2023-02-11T04:38:59;48.47;;;23.65;;
49502;SDS011;35409;48.776;9.204;2023-02-11T04:41:25;46.40;;;22.08;;
49502;SDS011;35409;48.776;9.204;2023-02-11T04:43:50;46.58;;;22.33;;
49502;SDS011;35409;48.776;9.204;2023-02-11T04:46:16;46.83;;;23.42;;
49502;SDS011;35409;48.776;9.204;2023-02-11T04:48:42;53.20;;;23.50;;
49502;SDS011;35409;48.776;9.204;2023-02-11T04:51:07;45.47;;;22.38;;
49502;SDS011;35409;48.776;9.204;2023-02-11T04:53:33;49.25;;;23.23;;
49502;SDS011;35409;48.776;9.204;2023-02-11T04:55:59;47.78;;;23.83;;
49502;SDS011;35409;48.776;9.204;2023-02-11T04:58:24;44.90;;;23.35;;
49502;SDS011;35409;48.776;9.204;2023-02-11T05:00:50;53.22;;;24.73;;
49502;SDS011;35409;48.776;9.204;2023-02-11T05:03:16;53.42;;;25.60;;
49502;SDS011;35409;48.776;9.204;2023-02-11T05:05:41;50.97;;;25.70;;
49502;SDS011;35409;48.776;9.204;2023-02-11T05:08:08;46.75;;;24.40;;
49502;SDS011;35409;48.776;9.204;2023-02-11T05:10:34;50.10;;;23.65;;
49502;SDS011;35409;48.776;9.204;2023-02-11T05:13:00;49.03;;;23.73;;
49502;SDS011;35409;48.776;9.204;2023-02-11T05:15:26;47.95;;;24.10;;
49502;SDS011;35409;48.776;9.204;2023-02-11T05:17:52;46.90;;;23.10;;
49502;SDS011;35409;48.776;9.204;2023-02-11T05:20:18;57.40;;;26.48;;
49502;SDS011;35409;48.776;9.204;2023-02-11T05:22:43;53.50;;;25.10;;
49502;SDS011;35409;48.776;9.204;2023-02-11T05:25:09;50.70;;;25.50;;
49502;SDS011;35409;48.776;9.204;2023-02-11T05:27:35;46.45;;;23.73;;
49502;SDS011;35409;48.776;9.204;2023-02-11T05:30:01;47.20;;;23.13;;
49502;SDS011;35409;48.776;9.204;2023-02-11T05:32:26;47.58;;;24.65;;
49502;SDS011;35409;48.776;9.204;2023-02-11T05:34:52;45.97;;;23.85;;
49502;SDS011;35409;48.776;9.204;2023-02-11T05:37:18;52.95;;;24.38;;
49502;SDS011;35409;48.776;9.204;2023-02-11T05:39:43;52.30;;;25.58;;
49502;SDS011;35409;48.776;9.204;2023-02-11T05:42:09;46.65;;;23.85;;
49502;SDS011;35409;48.776;9.204;2023-02-11T05:44:35;48.75;;;24.58;;
49502;SDS011;35409;48.776;9.204;2023-02-11T05:47:01;49.17;;;24.92;;
49502;SDS011;35409;48.776;9.204;2023-02-11T05:49:26;51.00;;;26.10;;
49502;SDS011;35409;48.776;9.204;2023-02-11T05:51:52;44.42;;;24.52;;
49502;SDS011;35409;48.776;9.204;2023-02-11T05:54:17;51.10;;;25.92;;
49502;SDS011;35409;48.776;9.204;2023-02-11T05:56:43;49.33;;;26.65;;
49502;SDS011;35409;48.776;9.204;2023-02-11T05:59:08;45.22;;;23.70;;
49502;SDS011;35409;48.776;9.204;2023-02-11T06:01:37;49.33;;;25.85;;
49502;SDS011;35409;48.776;9.204;2023-02-11T06:04:03;46.92;;;24.90;;
49502;SDS011;35409;48.776;9.204;2023-02-11T06:06:28;52.17;;;24.83;;
49502;SDS011;35409;48.776;9.204;2023-02-11T06:08:54;56.40;;;26.55;;
49502;SDS011;35409;48.776;9.204;2023-02-11T06:11:20;53.00;;;25.88;;
49502;SDS011;35409;48.776;9.204;2023-02-11T06:13:45;53.67;;;25.85;;
49502;SDS011;35409;48.776;9.204;2023-02-11T06:16:11;44.17;;;24.42;;
49502;SDS011;35409;48.776;9.204;2023-02-11T06:18:37;48.95;;;25.23;;
49502;SDS011;35409;48.776;9.204;2023-02-11T06:21:05;49.20;;;26.52;;
49502;SDS011;35409;48.776;9.204;2023-02-11T06:23:31;53.78;;;26.35;;
49502;SDS011;35409;48.776;9.204;2023-02-11T06:26:00;54.05;;;25.60;;
49502;SDS011;35409;48.776;9.204;2023-02-11T06:28:27;46.25;;;24.38;;
49502;SDS011;35409;48.776;9.204;2023-02-11T06:30:55;48.42;;;26.30;;
49502;SDS011;35409;48.776;9.204;2023-02-11T06:33:21;49.28;;;25.42;;
49502;SDS011;35409;48.776;9.204;2023-02-11T06:35:47;51.00;;;27.25;;
49502;SDS011;35409;48.776;9.204;2023-02-11T06:38:12;49.53;;;26.33;;
49502;SDS011;35409;48.776;9.204;2023-02-11T06:40:38;54.78;;;26.83;;
49502;SDS011;35409;48.776;9.204;2023-02-11T06:43:03;54.58;;;26.90;;
49502;SDS011;35409;48.776;9.204;2023-02-11T06:45:29;49.38;;;24.98;;
49502;SDS011;35409;48.776;9.204;2023-02-11T06:47:55;46.80;;;25.13;;
49502;SDS011;35409;48.776;9.204;2023-02-11T06:50:20;48.90;;;25.77;;
49502;SDS011;35409;48.776;9.204;2023-02-11T06:52:46;48.47;;;25.38;;
49502;SDS011;35409;48.776;9.204;2023-02-11T06:55:11;50.20;;;26.35;;
49502;SDS011;35409;48.776;9.204;2023-02-11T06:57:37;53.30;;;26.70;;
49502;SDS011;35409;48.776;9.204;2023-02-11T07:00:03;48.67;;;24.65;;
49502;SDS011;35409;48.776;9.204;2023-02-11T07:02:29;49.72;;;24.92;;
49502;SDS011;35409;48.776;9.204;2023-02-11T07:04:54;42.55;;;23.70;;
49502;SDS011;35409;48.776;9.204;2023-02-11T07:07:20;50.10;;;25.75;;
49502;SDS011;35409;48.776;9.204;2023-02-11T07:09:45;54.75;;;26.48;;
49502;SDS011;35409;48.776;9.204;2023-02-11T07:12:11;44.20;;;23.35;;
49502;SDS011;35409;48.776;9.204;2023-02-11T07:14:36;48.75;;;25.35;;
49502;SDS011;35409;48.776;9.204;2023-02-11T07:17:02;46.35;;;25.40;;
49502;SDS011;35409;48.776;9.204;2023-02-11T07:19:28;53.40;;;26.67;;
49502;SDS011;35409;48.776;9.204;2023-02-11T07:21:54;49.35;;;25.88;;
49502;SDS011;35409;48.776;9.204;2023-02-11T07:24:20;50.25;;;25.75;;
49502;SDS011;35409;48.776;9.204;2023-02-11T07:26:45;49.47;;;25.02;;
49502;SDS011;35409;48.776;9.204;2023-02-11T07:29:11;47.03;;;26.02;;
49502;SDS011;35409;48.776;9.204;2023-02-11T07:31:36;47.83;;;25.58;;
49502;SDS011;35409;48.776;9.204;2023-02-11T07:34:02;48.08;;;26.17;;
49502;SDS011;35409;48.776;9.204;2023-02-11T07:36:28;48.92;;;25.73;;
49502;SDS011;35409;48.776;9.204;2023-02-11T07:38:55;48.55;;;25.92;;
49502;SDS011;35409;48.776;9.204;2023-02-11T07:41:22;47.15;;;25.15;;
49502;SDS011;35409;48.776;9.204;2023-02-11T07:43:48;50.22;;;25.90;;
49502;SDS011;35409;48.776;9.204;2023-02-11T07:46:17;44.47;;;23.70;;
49502;SDS011;35409;48.776;9.204;2023-02-11T07:48:46;49.58;;;26.45;;
49502;SDS011;35409;48.776;9.204;2023-02-11T07:54:04;44.60;;;23.92;;
49502;SDS011;35409;48.776;9.204;2023-02-11T07:56:31;44.00;;;24.33;;
49502;SDS011;35409;48.776;9.204;2023-02-11T07:58:58;49.72;;;25.00;;
49502;SDS011;35409;48.776;9.204;2023-02-11T08:01:26;40.13;;;22.77;;
49502;SDS011;35409;48.776;9.204;2023-02-11T08:03:56;42.10;;;22.83;;
49502;SDS011;35409;48.776;9.204;2023-02-11T08:06:23;45.63;;;23.90;;
49502;SDS011;35409;48.776;9.204;2023-02-11T08:08:50;42.92;;;24.02;;
49502;SDS011;35409;48.776;9.204;2023-02-11T08:11:18;44.47;;;22.60;;
49502;SDS011;35409;48.776;9.204;2023-02-11T08:13:48;44.05;;;23.48;;
49502;SDS011;35409;48.776;9.204;2023-02-11T08:16:19;44.70;;;22.55;;
49502;SDS011;35409;48.776;9.204;2023-02-11T08:18:47;43.75;;;24.45;;
49502;SDS011;35409;48.776;9.204;2023-02-11T08:21:13;44.17;;;24.25;;
49502;SDS011;35409;48.776;9.204;2023-02-11T08:23:39;45.90;;;25.30;;
49502;SDS011;35409;48.776;9.204;2023-02-11T08:26:07;48.33;;;25.42;;
49502;SDS011;35409;48.776;9.204;2023-02-11T08:28:39;45.55;;;25.65;;
49502;SDS011;35409;48.776;9.204;2023-02-11T08:31:07;45.85;;;24.13;;
49502;SDS011;35409;48.776;9.204;2023-02-11T08:33:35;47.13;;;25.83;;
49502;SDS011;35409;48.776;9.204;2023-02-11T08:36:07;43.30;;;24.10;;
49502;SDS011;35409;48.776;9.204;2023-02-11T08:38:40;50.13;;;26.27;;
49502;SDS011;35409;48.776;9.204;2023-02-11T08:41:06;41.67;;;23.70;;
49502;SDS011;35409;48.776;9.204;2023-02-11T08:43:33;43.30;;;23.63;;
49502;SDS011;35409;48.776;9.204;2023-02-11T08:45:59;39.35;;;22.55;;
49502;SDS011;35409;48.776;9.204;2023-02-11T08:48:25;42.25;;;23.95;;
49502;SDS011;35409;48.776;9.204;2023-02-11T08:50:52;41.65;;;23.98;;
49502;SDS011;35409;48.776;9.204;2023-02-11T08:53:21;43.90;;;23.58;;
49502;SDS011;35409;48.776;9.204;2023-02-11T08:55:50;38.78;;;21.13;;
49502;SDS011;35409;48.776;9.204;2023-02-11T08:58:17;53.35;;;28.83;;
49502;SDS011;35409;48.776;9.204;2023-02-11T09:00:44;54.75;;;29.77;;
49502;SDS011;35409;48.776;9.204;2023-02-11T09:03:10;45.65;;;25.45;;
49502;SDS011;35409;48.776;9.204;2023-02-11T09:05:43;42.97;;;23.67;;
49502;SDS011;35409;48.776;9.204;2023-02-11T09:08:10;42.45;;;23.08;;
49502;SDS011;35409;48.776;9.204;2023-02-11T09:10:36;42.38;;;22.95;;
49502;SDS011;35409;48.776;9.204;2023-02-11T09:13:03;44.15;;;23.80;;
49502;SDS011;35409;48.776;9.204;2023-02-11T09:15:29;52.03;;;26.58;;
49502;SDS011;35409;48.776;9.204;2023-02-11T09:17:55;44.35;;;24.58;;
49502;SDS011;35409;48.776;9.204;2023-02-11T09:20:21;47.55;;;25.15;;
49502;SDS011;35409;48.776;9.204;2023-02-11T09:22:47;41.60;;;25.15;;
49502;SDS011;35409;48.776;9.204;2023-02-11T09:25:13;46.80;;;26.67;;
49502;SDS011;35409;48.776;9.204;2023-02-11T09:27:38;45.13;;;24.92;;
49502;SDS011;35409;48.776;9.204;2023-02-11T09:30:04;43.05;;;25.42;;
49502;SDS011;35409;48.776;9.204;2023-02-11T09:32:30;44.33;;;25.55;;
49502;SDS011;35409;48.776;9.204;2023-02-11T09:34:56;44.28;;;25.52;;
49502;SDS011;35409;48.776;9.204;2023-02-11T09:37:21;42.38;;;25.67;;
49502;SDS011;35409;48.776;9.204;2023-02-11T09:39:47;44.50;;;25.52;;
49502;SDS011;35409;48.776;9.204;2023-02-11T09:45:22;40.67;;;23.85;;
49502;SDS011;35409;48.776;9.204;2023-02-11T09:47:54;43.60;;;23.85;;
49502;SDS011;35409;48.776;9.204;2023-02-11T09:50:29;36.60;;;22.30;;
49502;SDS011;35409;48.776;9.204;2023-02-11T09:53:00;42.08;;;23.17;;
49502;SDS011;35409;48.776;9.204;2023-02-11T09:55:42;43.88;;;26.05;;
49502;SDS011;35409;48.776;9.204;2023-02-11T09:58:12;44.95;;;25.63;;
49502;SDS011;35409;48.776;9.204;2023-02-11T10:01:15;49.00;;;25.60;;
49502;SDS011;35409;48.776;9.204;2023-02-11T10:06:32;45.13;;;24.45;;
49502;SDS011;35409;48.776;9.204;2023-02-11T10:11:47;40.53;;;24.30;;
49502;SDS011;35409;48.776;9.204;2023-02-11T10:22:49;42.03;;;24.25;;
49502;SDS011;35409;48.776;9.204;2023-02-11T10:25:25;40.92;;;23.35;;
49502;SDS011;35409;48.776;9.204;2023-02-11T10:27:55;46.17;;;23.80;;
49502;SDS011;35409;48.776;9.204;2023-02-11T10:30:33;53.13;;;25.15;;
49502;SDS011;35409;48.776;9.204;2023-02-11T10:36:11;43.03;;;24.40;;
49502;SDS011;35409;48.776;9.204;2023-02-11T10:38:38;41.80;;;23.15;;
49502;SDS011;35409;48.776;9.204;2023-02-11T10:41:04;39.88;;;23.85;;
49502;SDS011;35409;48.776;9.204;2023-02-11T10:43:30;39.40;;;23.73;;
49502;SDS011;35409;48.776;9.204;2023-02-11T10:45:57;41.63;;;24.60;;
49502;SDS011;35409;48.776;9.204;2023-02-11T10:53:47;38.35;;;21.80;;
49502;SDS011;35409;48.776;9.204;2023-02-11T10:56:57;40.90;;;22.70;;
49502;SDS011;35409;48.776;9.204;2023-02-11T10:59:28;42.38;;;23.50;;
49502;SDS011;35409;48.776;9.204;2023-02-11T11:02:50;37.85;;;21.88;;
49502;SDS011;35409;48.776;9.204;2023-02-11T11:04:56;36.25;;;22.65;;
49502;SDS011;35409;48.776;9.204;2023-02-11T11:07:25;37.97;;;21.55;;
49502;SDS011;35409;48.776;9.204;2023-02-11T11:10:06;35.33;;;20.00;;
49502;SDS011;35409;48.776;9.204;2023-02-11T11:12:49;31.52;;;19.48;;
49502;SDS011;35409;48.776;9.204;2023-02-11T11:15:27;32.00;;;19.45;;
49502;SDS011;35409;48.776;9.204;2023-02-11T11:23:23;29.27;;;17.77;;
49502;SDS011;35409;48.776;9.204;2023-02-11T11:28:52;25.45;;;15.68;;
49502;SDS011;35409;48.776;9.204;2023-02-11T11:31:22;32.20;;;18.50;;
49502;SDS011;35409;48.776;9.204;2023-02-11T11:33:58;24.25;;;13.68;;
49502;SDS011;35409;48.776;9.204;2023-02-11T11:36:35;27.98;;;17.23;;
49502;SDS011;35409;48.776;9.204;2023-02-11T11:39:14;23.23;;;15.30;;
49502;SDS011;35409;48.776;9.204;2023-02-11T11:41:51;25.13;;;14.93;;
49502;SDS011;35409;48.776;9.204;2023-02-11T11:46:53;23.77;;;13.45;;
49502;SDS011;35409;48.776;9.204;2023-02-11T11:49:31;20.63;;;12.45;;
49502;SDS011;35409;48.776;9.204;2023-02-11T11:53:02;19.10;;;12.40;;
49502;SDS011;35409;48.776;9.204;2023-02-11T11:55:09;20.58;;;12.52;;
49502;SDS011;35409;48.776;9.204;2023-02-11T11:57:36;25.80;;;13.65;;
49502;SDS011;35409;48.776;9.204;2023-02-11T12:00:03;22.23;;;14.73;;
49502;SDS011;35409;48.776;9.204;2023-02-11T12:08:24;20.13;;;12.75;;
49502;SDS011;35409;48.776;9.204;2023-02-11T12:11:00;20.48;;;13.18;;
49502;SDS011;35409;48.776;9.204;2023-02-11T12:24:32;19.92;;;12.90;;
49502;SDS011;35409;48.776;9.204;2023-02-11T12:32:57;19.27;;;11.52;;
49502;SDS011;35409;48.776;9.204;2023-02-11T12:35:21;20.10;;;12.13;;
49502;SDS011;35409;48.776;9.204;2023-02-11T12:40:34;18.42;;;11.48;;
49502;SDS011;35409;48.776;9.204;2023-02-11T12:43:17;22.08;;;11.45;;
49502;SDS011;35409;48.776;9.204;2023-02-11T12:55:47;16.35;;;8.63;;
49502;SDS011;35409;48.776;9.204;2023-02-11T12:58:19;17.83;;;8.80;;
49502;SDS011;35409;48.776;9.204;2023-02-11T13:00:48;11.52;;;7.60;;
49502;SDS011;35409;48.776;9.204;2023-02-11T13:03:23;14.95;;;9.32;;
49502;SDS011;35409;48.776;9.204;2023-02-11T13:05:51;11.00;;;7.22;;
49502;SDS011;35409;48.776;9.204;2023-02-11T13:08:24;10.88;;;7.78;;
49502;SDS011;35409;48.776;9.204;2023-02-11T13:10:53;12.75;;;7.75;;
49502;SDS011;35409;48.776;9.204;2023-02-11T13:13:28;11.52;;;7.72;;
49502;SDS011;35409;48.776;9.204;2023-02-11T13:16:02;12.25;;;7.75;;
49502;SDS011;35409;48.776;9.204;2023-02-11T13:26:07;15.00;;;8.60;;
49502;SDS011;35409;48.776;9.204;2023-02-11T13:28:49;18.63;;;8.52;;
49502;SDS011;35409;48.776;9.204;2023-02-11T13:31:18;19.35;;;13.18;;
49502;SDS011;35409;48.776;9.204;2023-02-11T13:33:45;19.33;;;13.07;;
49502;SDS011;35409;48.776;9.204;2023-02-11T13:36:46;22.45;;;12.80;;
49502;SDS011;35409;48.776;9.204;2023-02-11T13:39:05;20.98;;;12.77;;
49502;SDS011;35409;48.776;9.204;2023-02-11T13:41:43;27.08;;;13.95;;
49502;SDS011;35409;48.776;9.204;2023-02-11T13:47:04;25.05;;;13.32;;
49502;SDS011;35409;48.776;9.204;2023-02-11T13:49:32;22.80;;;13.15;;
49502;SDS011;35409;48.776;9.204;2023-02-11T13:51:59;22.63;;;12.90;;
49502;SDS011;35409;48.776;9.204;2023-02-11T13:54:29;27.92;;;14.30;;
49502;SDS011;35409;48.776;9.204;2023-02-11T14:10:53;24.73;;;15.27;;
49502;SDS011;35409;48.776;9.204;2023-02-11T14:16:02;25.65;;;15.55;;
49502;SDS011;35409;48.776;9.204;2023-02-11T14:18:38;29.13;;;16.33;;
49502;SDS011;35409;48.776;9.204;2023-02-11T14:21:18;24.45;;;15.77;;
49502;SDS011;35409;48.776;9.204;2023-02-11T14:29:31;25.08;;;15.68;;
49502;SDS011;35409;48.776;9.204;2023-02-11T14:31:39;26.02;;;15.82;;
49502;SDS011;35409;48.776;9.204;2023-02-11T14:41:49;29.20;;;17.45;;
49502;SDS011;35409;48.776;9.204;2023-02-11T14:44:19;30.48;;;16.77;;
49502;SDS011;35409;48.776;9.204;2023-02-11T14:46:47;28.05;;;16.15;;
49502;SDS011;35409;48.776;9.204;2023-02-11T14:49:27;22.40;;;13.70;;
49502;SDS011;35409;48.776;9.204;2023-02-11T14:52:03;23.00;;;15.05;;
49502;SDS011;35409;48.776;9.204;2023-02-11T14:54:30;22.75;;;12.95;;
49502;SDS011;35409;48.776;9.204;2023-02-11T14:57:13;18.92;;;12.63;;
49502;SDS011;35409;48.776;9.204;2023-02-11T14:59:39;19.80;;;12.45;;
49502;SDS011;35409;48.776;9.204;2023-02-11T15:02:21;24.42;;;12.88;;
49502;SDS011;35409;48.776;9.204;2023-02-11T15:04:47;20.00;;;12.98;;
49502;SDS011;35409;48.776;9.204;2023-02-11T15:07:14;19.65;;;12.10;;
49502;SDS011;35409;48.776;9.204;2023-02-11T15:09:44;19.20;;;12.88;;
49502;SDS011;35409;48.776;9.204;2023-02-11T15:12:14;18.98;;;12.88;;
49502;SDS011;35409;48.776;9.204;2023-02-11T15:14:44;18.40;;;12.27;;
49502;SDS011;35409;48.776;9.204;2023-02-11T15:17:11;20.83;;;12.48;;
49502;SDS011;35409;48.776;9.204;2023-02-11T15:19:39;21.05;;;14.48;;
49502;SDS011;35409;48.776;9.204;2023-02-11T15:22:12;22.60;;;15.05;;
49502;SDS011;35409;48.776;9.204;2023-02-11T15:24:42;129.75;;;118.25;;
49502;SDS011;35409;48.776;9.204;2023-02-11T15:29:40;25.08;;;16.60;;
49502;SDS011;35409;48.776;9.204;2023-02-11T15:32:12;24.40;;;15.25;;
49502;SDS011;35409;48.776;9.204;2023-02-11T15:34:39;27.00;;;15.60;;
49502;SDS011;35409;48.776;9.204;2023-02-11T15:37:05;26.00;;;16.70;;
49502;SDS011;35409;48.776;9.204;2023-02-11T15:39:37;21.35;;;15.07;;
49502;SDS011;35409;48.776;9.204;2023-02-11T15:42:14;24.88;;;15.20;;
49502;SDS011;35409;48.776;9.204;2023-02-11T15:44:41;27.20;;;16.10;;
49502;SDS011;35409;48.776;9.204;2023-02-11T15:47:16;22.90;;;15.18;;
49502;SDS011;35409;48.776;9.204;2023-02-11T15:49:43;27.88;;;14.98;;
49502;SDS011;35409;48.776;9.204;2023-02-11T15:52:09;24.50;;;15.27;;
49502;SDS011;35409;48.776;9.204;2023-02-11T15:54:36;25.75;;;16.55;;
49502;SDS011;35409;48.776;9.204;2023-02-11T15:57:03;26.42;;;15.27;;
49502;SDS011;35409;48.776;9.204;2023-02-11T15:59:34;21.23;;;15.45;;
49502;SDS011;35409;48.776;9.204;2023-02-11T16:02:07;26.98;;;16.17;;
49502;SDS011;35409;48.776;9.204;2023-02-11T16:04:37;32.47;;;17.00;;
49502;SDS011;35409;48.776;9.204;2023-02-11T16:07:03;27.05;;;16.80;;
49502;SDS011;35409;48.776;9.204;2023-02-11T16:09:31;29.02;;;16.85;;
49502;SDS011;35409;48.776;9.204;2023-02-11T16:12:00;27.17;;;17.05;;
49502;SDS011;35409;48.776;9.204;2023-02-11T16:19:45;29.63;;;18.33;;
49502;SDS011;35409;48.776;9.204;2023-02-11T16:22:17;31.80;;;18.08;;
49502;SDS011;35409;48.776;9.204;2023-02-11T16:24:45;28.15;;;17.15;;
49502;SDS011;35409;48.776;9.204;2023-02-11T16:27:22;29.30;;;17.92;;
49502;SDS011;35409;48.776;9.204;2023-02-11T16:29:51;29.27;;;18.30;;
49502;SDS011;35409;48.776;9.204;2023-02-11T16:32:22;27.90;;;18.73;;
49502;SDS011;35409;48.776;9.204;2023-02-11T16:34:49;29.50;;;17.98;;
49502;SDS011;35409;48.776;9.204;2023-02-11T16:37:16;34.33;;;18.05;;
49502;SDS011;35409;48.776;9.204;2023-02-11T16:39:43;27.08;;;17.67;;
49502;SDS011;35409;48.776;9.204;2023-02-11T16:42:10;33.58;;;18.70;;
49502;SDS011;35409;48.776;9.204;2023-02-11T16:44:37;28.63;;;18.15;;
49502;SDS011;35409;48.776;9.204;2023-02-11T16:47:05;30.27;;;17.77;;
49502;SDS011;35409;48.776;9.204;2023-02-11T16:49:36;30.92;;;18.40;;
49502;SDS011;35409;48.776;9.204;2023-02-11T16:52:07;28.55;;;18.05;;
49502;SDS011;35409;48.776;9.204;2023-02-11T16:54:34;28.65;;;18.50;;
49502;SDS011;35409;48.776;9.204;2023-02-11T16:57:01;31.63;;;18.48;;
49502;SDS011;35409;48.776;9.204;2023-02-11T16:59:28;27.55;;;18.00;;
49502;SDS011;35409;48.776;9.204;2023-02-11T17:01:55;32.00;;;18.45;;
49502;SDS011;35409;48.776;9.204;2023-02-11T17:04:23;27.48;;;17.25;;
49502;SDS011;35409;48.776;9.204;2023-02-11T17:06:51;27.52;;;17.80;;
49502;SDS011;35409;48.776;9.204;2023-02-11T17:09:18;28.67;;;18.45;;
49502;SDS011;35409;48.776;9.204;2023-02-11T17:11:46;27.10;;;18.42;;